createdAt,value
2023-03-13T00:00:22.761Z,0.00
2023-03-13T00:01:22.781Z,0.00
2023-03-13T00:02:22.783Z,0.00
2023-03-13T00:03:22.730Z,0.00
2023-03-13T00:04:22.719Z,0.00
2023-03-13T00:05:22.768Z,0.00
2023-03-13T00:06:22.693Z,0.00
2023-03-13T00:07:22.684Z,0.00
2023-03-13T00:08:22.661Z,0.00
2023-03-13T00:09:22.638Z,0.00
2023-03-13T00:10:22.627Z,0.00
2023-03-13T00:11:22.638Z,0.00
2023-03-13T00:12:22.616Z,0.00
2023-03-13T00:13:22.611Z,0.00
2023-03-13T00:14:22.577Z,0.00
2023-03-13T00:15:22.592Z,0.00
2023-03-13T00:16:22.578Z,0.00
2023-03-13T00:17:22.537Z,0.00
2023-03-13T00:18:22.522Z,0.00
2023-03-13T00:19:22.534Z,0.00
2023-03-13T00:20:22.489Z,0.00
2023-03-13T00:21:22.501Z,0.00
2023-03-13T00:22:22.475Z,0.00
2023-03-13T00:23:22.457Z,0.00
2023-03-13T00:24:22.447Z,0.00
2023-03-13T00:25:22.447Z,0.00
2023-03-13T00:26:22.412Z,0.00
2023-03-13T00:27:22.425Z,0.00
2023-03-13T00:28:22.400Z,0.00
2023-03-13T00:29:22.370Z,0.00
2023-03-13T00:30:22.356Z,0.00
2023-03-13T00:31:22.495Z,0.00
2023-03-13T00:32:22.389Z,0.00
2023-03-13T00:33:22.356Z,0.00
2023-03-13T00:34:22.308Z,0.00
2023-03-13T00:35:22.319Z,0.00
2023-03-13T00:36:22.287Z,0.00
2023-03-13T00:37:22.271Z,0.00
2023-03-13T00:38:22.257Z,0.00
2023-03-13T00:39:22.248Z,0.00
2023-03-13T00:40:22.236Z,0.00
2023-03-13T00:41:22.249Z,0.00
2023-03-13T00:42:22.197Z,0.00
2023-03-13T00:43:22.176Z,0.00
2023-03-13T00:44:22.185Z,0.00
2023-03-13T00:45:22.195Z,0.00
2023-03-13T00:46:22.212Z,0.00
2023-03-13T00:47:22.138Z,0.00
2023-03-13T00:48:22.136Z,0.00
2023-03-13T00:49:22.106Z,0.00
2023-03-13T00:50:22.086Z,0.00
2023-03-13T00:51:22.079Z,0.00
2023-03-13T00:52:22.069Z,0.00
2023-03-13T00:53:22.054Z,0.00
2023-03-13T00:54:22.061Z,0.00
2023-03-13T00:55:22.027Z,0.00
2023-03-13T00:56:22.007Z,0.00
2023-03-13T00:57:21.999Z,0.00
2023-03-13T00:58:22.012Z,0.00
2023-03-13T00:59:21.965Z,0.00
2023-03-13T01:00:21.957Z,0.00
2023-03-13T01:01:21.972Z,0.00
2023-03-13T01:02:22.093Z,0.00
2023-03-13T01:03:22.093Z,0.00
2023-03-13T01:04:21.913Z,0.00
2023-03-13T01:05:21.893Z,0.00
2023-03-13T01:06:21.886Z,0.00
2023-03-13T01:07:21.879Z,0.00
2023-03-13T01:08:21.844Z,0.00
2023-03-13T01:09:21.844Z,0.00
2023-03-13T01:10:21.834Z,0.00
2023-03-13T01:11:21.817Z,0.00
2023-03-13T01:12:21.839Z,0.00
2023-03-13T01:13:21.796Z,0.00
2023-03-13T01:14:21.775Z,0.00
2023-03-13T01:15:21.769Z,0.00
2023-03-13T01:16:21.864Z,0.00
2023-03-13T01:17:21.727Z,0.00
2023-03-13T01:18:21.721Z,0.00
2023-03-13T01:19:21.720Z,0.00
2023-03-13T01:20:21.697Z,0.00
2023-03-13T01:21:21.685Z,0.00
2023-03-13T01:22:21.681Z,0.00
2023-03-13T01:23:21.650Z,0.00
2023-03-13T01:24:21.647Z,0.00
2023-03-13T01:25:21.629Z,0.00
2023-03-13T01:26:21.635Z,0.00
2023-03-13T01:27:21.607Z,0.00
2023-03-13T01:28:21.600Z,0.00
2023-03-13T01:29:21.586Z,0.00
2023-03-13T01:30:21.563Z,0.00
2023-03-13T01:31:21.597Z,0.00
2023-03-13T01:32:21.567Z,0.00
2023-03-13T01:33:21.527Z,0.00
2023-03-13T01:34:21.520Z,0.00
2023-03-13T01:35:21.536Z,0.00
2023-03-13T01:36:21.497Z,0.00
2023-03-13T01:37:21.471Z,0.00
2023-03-13T01:38:21.476Z,0.00
2023-03-13T01:39:21.442Z,0.00
2023-03-13T01:40:21.446Z,0.00
2023-03-13T01:41:21.428Z,0.00
2023-03-13T01:42:21.412Z,0.00
2023-03-13T01:43:26.795Z,0.00
2023-03-13T01:44:22.382Z,0.00
2023-03-13T01:45:21.360Z,0.00
2023-03-13T01:46:21.463Z,0.00
2023-03-13T01:47:21.342Z,0.00
2023-03-13T01:48:21.313Z,0.00
2023-03-13T01:49:21.318Z,0.00
2023-03-13T01:50:21.315Z,0.00
2023-03-13T01:51:21.280Z,0.00
2023-03-13T01:52:21.315Z,0.00
2023-03-13T01:53:21.251Z,0.00
2023-03-13T01:54:21.248Z,0.00
2023-03-13T01:55:21.231Z,0.00
2023-03-13T01:56:21.213Z,0.00
2023-03-13T01:57:21.204Z,0.00
2023-03-13T01:58:21.184Z,0.00
2023-03-13T01:59:21.209Z,0.00
2023-03-13T02:00:21.164Z,0.00
2023-03-13T02:01:21.160Z,0.00
2023-03-13T02:02:21.158Z,0.00
2023-03-13T02:03:21.129Z,0.00
2023-03-13T02:04:21.123Z,0.00
2023-03-13T02:05:21.109Z,0.00
2023-03-13T02:06:21.096Z,0.00
2023-03-13T02:07:21.064Z,0.00
2023-03-13T02:08:21.066Z,0.00
2023-03-13T02:09:21.048Z,0.00
2023-03-13T02:10:21.032Z,0.00
2023-03-13T02:11:21.024Z,0.00
2023-03-13T02:12:21.024Z,0.00
2023-03-13T02:13:20.996Z,0.00
2023-03-13T02:14:22.372Z,0.00
2023-03-13T02:15:20.964Z,0.00
2023-03-13T02:16:21.099Z,0.00
2023-03-13T02:17:20.924Z,0.00
2023-03-13T02:18:20.946Z,0.00
2023-03-13T02:19:20.898Z,0.00
2023-03-13T02:20:20.905Z,0.00
2023-03-13T02:21:20.875Z,0.00
2023-03-13T02:22:20.887Z,0.00
2023-03-13T02:23:20.874Z,0.00
2023-03-13T02:24:20.845Z,0.00
2023-03-13T02:25:20.857Z,0.00
2023-03-13T02:26:20.814Z,0.00
2023-03-13T02:27:20.799Z,0.00
2023-03-13T02:28:20.805Z,0.00
2023-03-13T02:29:20.773Z,0.00
2023-03-13T02:30:20.784Z,0.00
2023-03-13T02:31:20.824Z,0.00
2023-03-13T02:32:20.762Z,0.00
2023-03-13T02:33:20.727Z,0.00
2023-03-13T02:34:20.714Z,0.00
2023-03-13T02:35:20.707Z,0.00
2023-03-13T02:36:20.694Z,0.00
2023-03-13T02:37:20.703Z,0.00
2023-03-13T02:38:20.669Z,0.00
2023-03-13T02:39:20.640Z,0.00
2023-03-13T02:40:20.619Z,0.00
2023-03-13T02:41:20.616Z,0.00
2023-03-13T02:42:20.636Z,0.00
2023-03-13T02:43:20.596Z,0.00
2023-03-13T02:44:20.578Z,0.00
2023-03-13T02:45:20.568Z,0.00
2023-03-13T02:46:20.588Z,0.00
2023-03-13T02:47:20.553Z,0.00
2023-03-13T02:48:20.529Z,0.00
2023-03-13T02:49:20.510Z,0.00
2023-03-13T02:50:20.490Z,0.00
2023-03-13T02:51:20.486Z,0.00
2023-03-13T02:52:20.488Z,0.00
2023-03-13T02:53:20.460Z,0.00
2023-03-13T02:54:20.470Z,0.00
2023-03-13T02:55:20.431Z,0.00
2023-03-13T02:56:20.420Z,0.00
2023-03-13T02:57:20.412Z,0.00
2023-03-13T02:58:20.419Z,0.00
2023-03-13T02:59:20.376Z,0.00
2023-03-13T03:00:20.363Z,0.00
2023-03-13T03:01:20.422Z,0.00
2023-03-13T03:02:20.333Z,0.00
2023-03-13T03:03:20.322Z,0.00
2023-03-13T03:04:20.354Z,0.00
2023-03-13T03:05:20.286Z,0.00
2023-03-13T03:06:20.327Z,0.00
2023-03-13T03:07:20.274Z,0.00
2023-03-13T03:08:20.276Z,0.00
2023-03-13T03:09:20.283Z,0.00
2023-03-13T03:10:20.228Z,0.00
2023-03-13T03:11:20.228Z,0.00
2023-03-13T03:12:20.217Z,0.00
2023-03-13T03:13:20.207Z,0.00
2023-03-13T03:14:20.192Z,0.00
2023-03-13T03:15:20.176Z,0.00
2023-03-13T03:16:20.189Z,0.00
2023-03-13T03:17:20.138Z,0.00
2023-03-13T03:18:20.141Z,0.00
2023-03-13T03:19:20.097Z,0.00
2023-03-13T03:20:20.109Z,0.00
2023-03-13T03:21:20.075Z,0.00
2023-03-13T03:22:20.074Z,0.00
2023-03-13T03:23:20.085Z,0.00
2023-03-13T03:24:20.032Z,0.00
2023-03-13T03:25:20.034Z,0.00
2023-03-13T03:26:20.046Z,0.00
2023-03-13T03:27:20.022Z,0.00
2023-03-13T03:28:19.982Z,0.00
2023-03-13T03:29:19.992Z,0.00
2023-03-13T03:30:19.970Z,0.00
2023-03-13T03:31:19.977Z,0.00
2023-03-13T03:32:19.959Z,0.00
2023-03-13T03:33:19.920Z,0.00
2023-03-13T03:34:19.920Z,0.00
2023-03-13T03:35:19.904Z,0.00
2023-03-13T03:36:19.888Z,0.00
2023-03-13T03:37:19.864Z,0.00
2023-03-13T03:38:19.861Z,0.00
2023-03-13T03:39:19.852Z,0.00
2023-03-13T03:40:19.845Z,0.00
2023-03-13T03:41:19.839Z,0.00
2023-03-13T03:42:19.790Z,0.00
2023-03-13T03:43:19.805Z,0.00
2023-03-13T03:44:19.795Z,0.00
2023-03-13T03:45:19.760Z,0.00
2023-03-13T03:46:19.839Z,0.00
2023-03-13T03:47:19.772Z,0.00
2023-03-13T03:48:19.729Z,0.00
2023-03-13T03:49:19.703Z,0.00
2023-03-13T04:02:48.892Z,0.00
2023-03-13T04:03:48.914Z,0.00
2023-03-13T04:04:48.853Z,0.00
2023-03-13T04:05:48.830Z,0.00
2023-03-13T04:06:48.827Z,0.00
2023-03-13T04:07:48.813Z,0.00
2023-03-13T04:08:48.802Z,0.00
2023-03-13T04:09:48.808Z,0.00
2023-03-13T04:10:48.769Z,0.00
2023-03-13T04:11:48.772Z,0.00
2023-03-13T04:12:48.760Z,0.00
2023-03-13T04:13:48.761Z,0.00
2023-03-13T04:14:48.753Z,0.00
2023-03-13T04:15:48.752Z,0.00
2023-03-13T04:16:48.781Z,0.00
2023-03-13T04:17:48.688Z,0.00
2023-03-13T04:18:48.718Z,0.00
2023-03-13T04:19:48.686Z,0.00
2023-03-13T04:20:48.644Z,0.00
2023-03-13T04:21:48.639Z,0.00
2023-03-13T04:22:48.631Z,0.00
2023-03-13T04:23:48.643Z,0.00
2023-03-13T04:24:48.632Z,0.00
2023-03-13T04:25:48.605Z,0.00
2023-03-13T04:26:48.587Z,0.00
2023-03-13T04:27:48.557Z,0.00
2023-03-13T04:28:48.558Z,0.00
2023-03-13T04:29:48.557Z,0.00
2023-03-13T04:30:48.640Z,0.00
2023-03-13T04:31:48.501Z,0.00
2023-03-13T04:32:48.572Z,0.00
2023-03-13T04:33:48.489Z,0.00
2023-03-13T04:34:48.490Z,0.00
2023-03-13T04:35:48.588Z,0.00
2023-03-13T04:36:48.456Z,0.00
2023-03-13T04:37:48.439Z,0.00
2023-03-13T04:38:48.420Z,0.00
2023-03-13T04:39:48.428Z,0.00
2023-03-13T04:40:48.409Z,0.00
2023-03-13T04:41:48.495Z,0.00
2023-03-13T04:42:48.358Z,0.00
2023-03-13T04:43:48.355Z,0.00
2023-03-13T04:44:48.367Z,0.00
2023-03-13T04:45:48.376Z,0.00
2023-03-13T04:46:48.339Z,0.00
2023-03-13T04:47:48.288Z,0.00
2023-03-13T04:48:48.288Z,0.00
2023-03-13T04:49:48.298Z,0.00
2023-03-13T04:50:48.259Z,0.00
2023-03-13T04:51:48.287Z,0.00
2023-03-13T04:52:49.666Z,0.00
2023-03-13T04:53:48.228Z,0.00
2023-03-13T04:54:48.237Z,0.00
2023-03-13T04:55:48.209Z,0.00
2023-03-13T04:56:48.183Z,0.00
2023-03-13T04:57:48.171Z,0.00
2023-03-13T04:58:48.160Z,0.00
2023-03-13T04:59:48.152Z,0.00
2023-03-13T05:00:48.153Z,0.00
2023-03-13T05:01:48.153Z,0.00
2023-03-13T05:02:48.108Z,0.00
2023-03-13T05:03:48.089Z,0.00
2023-03-13T05:04:48.227Z,0.00
2023-03-13T05:05:48.072Z,0.00
2023-03-13T05:06:48.050Z,0.00
2023-03-13T05:07:48.040Z,0.00
2023-03-13T05:08:48.039Z,0.00
2023-03-13T05:09:48.027Z,0.00
2023-03-13T05:10:48.003Z,0.00
2023-03-13T05:11:47.982Z,0.00
2023-03-13T05:12:47.981Z,0.00
2023-03-13T05:13:47.958Z,0.00
2023-03-13T05:14:47.942Z,0.00
2023-03-13T05:15:47.954Z,0.00
2023-03-13T05:16:47.941Z,0.00
2023-03-13T05:17:47.903Z,0.00
2023-03-13T05:18:47.899Z,0.00
2023-03-13T05:19:47.873Z,0.00
2023-03-13T05:20:47.873Z,4.00
2023-03-13T05:21:47.851Z,4.00
2023-03-13T05:22:47.835Z,0.00
2023-03-13T05:23:47.826Z,4.00
2023-03-13T05:24:47.819Z,4.00
2023-03-13T05:25:47.814Z,4.00
2023-03-13T05:26:47.774Z,4.00
2023-03-13T05:27:47.764Z,4.00
2023-03-13T05:28:47.769Z,4.00
2023-03-13T05:29:47.746Z,4.00
2023-03-13T05:30:47.808Z,4.00
2023-03-13T05:31:47.715Z,8.00
2023-03-13T05:32:47.747Z,4.00
2023-03-13T05:33:47.693Z,8.00
2023-03-13T05:34:47.676Z,8.00
2023-03-13T05:35:47.716Z,8.00
2023-03-13T05:36:47.654Z,8.00
2023-03-13T05:37:47.644Z,8.00
2023-03-13T05:38:47.624Z,12.00
2023-03-13T05:39:47.614Z,12.00
2023-03-13T05:40:47.607Z,12.00
2023-03-13T05:41:47.575Z,12.00
2023-03-13T05:42:47.568Z,16.00
2023-03-13T05:43:47.554Z,16.00
2023-03-13T05:44:47.544Z,20.00
2023-03-13T05:45:47.549Z,20.00
2023-03-13T05:46:47.536Z,24.00
2023-03-13T05:47:47.508Z,28.00
2023-03-13T05:48:47.496Z,28.00
2023-03-13T05:49:47.477Z,36.00
2023-03-13T05:50:47.486Z,32.00
2023-03-13T05:51:47.446Z,32.00
2023-03-13T05:52:47.436Z,32.00
2023-03-13T05:53:47.436Z,28.00
2023-03-13T05:54:47.409Z,32.00
2023-03-13T05:55:47.408Z,32.00
2023-03-13T05:56:47.384Z,32.00
2023-03-13T05:57:47.367Z,36.00
2023-03-13T05:58:47.378Z,40.00
2023-03-13T05:59:47.355Z,40.00
2023-03-13T06:00:47.353Z,40.00
2023-03-13T06:01:47.312Z,52.00
2023-03-13T06:02:47.305Z,52.00
2023-03-13T06:03:47.351Z,64.00
2023-03-13T06:04:47.401Z,56.00
2023-03-13T06:05:47.283Z,56.00
2023-03-13T06:06:47.271Z,72.00
2023-03-13T06:07:47.233Z,76.00
2023-03-13T06:08:47.244Z,76.00
2023-03-13T06:09:47.223Z,92.00
2023-03-13T06:10:47.225Z,100.00
2023-03-13T06:11:47.186Z,108.00
2023-03-13T06:12:47.163Z,108.00
2023-03-13T06:13:47.141Z,108.00
2023-03-13T06:14:47.156Z,96.00
2023-03-13T06:15:47.138Z,108.00
2023-03-13T06:16:47.134Z,112.00
2023-03-13T06:17:47.102Z,112.00
2023-03-13T06:18:47.084Z,120.00
2023-03-13T06:19:47.070Z,124.00
2023-03-13T06:20:47.087Z,116.00
2023-03-13T06:21:47.071Z,120.00
2023-03-13T06:22:47.041Z,108.00
2023-03-13T06:23:47.021Z,104.00
2023-03-13T06:24:47.012Z,100.00
2023-03-13T06:25:47.009Z,112.00
2023-03-13T06:26:49.326Z,112.00
2023-03-13T06:27:46.986Z,120.00
2023-03-13T06:28:46.963Z,144.00
2023-03-13T06:29:46.956Z,160.00
2023-03-13T06:30:46.955Z,160.00
2023-03-13T06:31:47.047Z,180.00
2023-03-13T06:32:47.007Z,188.00
2023-03-13T06:33:48.588Z,172.00
2023-03-13T06:34:46.896Z,140.00
2023-03-13T06:35:56.158Z,128.00
2023-03-13T06:36:47.872Z,128.00
2023-03-13T06:37:46.843Z,140.00
2023-03-13T06:38:46.833Z,148.00
2023-03-13T06:39:46.815Z,156.00
2023-03-13T06:40:47.944Z,148.00
2023-03-13T06:41:46.798Z,132.00
2023-03-13T06:42:46.778Z,120.00
2023-03-13T06:43:46.755Z,112.00
2023-03-13T06:44:46.752Z,116.00
2023-03-13T06:45:46.736Z,96.00
2023-03-13T06:46:46.878Z,100.00
2023-03-13T06:47:46.705Z,104.00
2023-03-13T06:48:46.701Z,96.00
2023-03-13T06:49:46.684Z,104.00
2023-03-13T06:50:46.676Z,112.00
2023-03-13T06:51:46.673Z,144.00
2023-03-13T06:52:46.661Z,160.00
2023-03-13T06:53:46.662Z,172.00
2023-03-13T06:54:46.616Z,164.00
2023-03-13T06:55:46.608Z,160.00
2023-03-13T06:56:46.616Z,148.00
2023-03-13T06:57:46.576Z,160.00
2023-03-13T06:58:54.089Z,156.00
2023-03-13T06:59:46.556Z,152.00
2023-03-13T07:00:46.651Z,144.00
2023-03-13T07:01:46.568Z,140.00
2023-03-13T07:02:46.550Z,136.00
2023-03-13T07:03:46.565Z,140.00
2023-03-13T07:04:46.533Z,160.00
2023-03-13T07:05:46.490Z,176.00
2023-03-13T07:06:46.509Z,184.00
2023-03-13T07:07:46.466Z,184.00
2023-03-13T07:08:46.464Z,164.00
2023-03-13T07:09:46.450Z,168.00
2023-03-13T07:10:46.428Z,192.00
2023-03-13T07:11:46.438Z,204.00
2023-03-13T07:12:46.405Z,200.00
2023-03-13T07:13:46.389Z,200.00
2023-03-13T07:14:46.405Z,212.00
2023-03-13T07:15:46.354Z,228.00
2023-03-13T07:16:46.554Z,204.00
2023-03-13T07:17:46.318Z,188.00
2023-03-13T07:18:46.333Z,204.00
2023-03-13T07:19:46.306Z,216.00
2023-03-13T07:20:46.305Z,232.00
2023-03-13T07:21:46.313Z,228.00
2023-03-13T07:22:46.259Z,224.00
2023-03-13T07:23:46.257Z,224.00
2023-03-13T07:24:46.307Z,272.00
2023-03-13T07:25:46.217Z,308.00
2023-03-13T07:27:01.578Z,332.00
2023-03-13T07:27:47.209Z,344.00
2023-03-13T07:28:46.208Z,400.00
2023-03-13T07:29:46.185Z,380.00
2023-03-13T07:30:46.171Z,404.00
2023-03-13T07:31:46.200Z,420.00
2023-03-13T07:32:46.188Z,424.00
2023-03-13T07:33:46.110Z,460.00
2023-03-13T07:34:46.107Z,456.00
2023-03-13T07:35:46.098Z,476.00
2023-03-13T07:36:46.090Z,500.00
2023-03-13T07:37:46.150Z,452.00
2023-03-13T07:38:46.062Z,412.00
2023-03-13T07:39:46.068Z,388.00
2023-03-13T07:40:46.043Z,368.00
2023-03-13T07:41:46.058Z,392.00
2023-03-13T07:42:45.992Z,436.00
2023-03-13T07:43:46.002Z,436.00
2023-03-13T07:44:46.016Z,500.00
2023-03-13T07:45:46.064Z,512.00
2023-03-13T07:46:45.955Z,488.00
2023-03-13T07:47:46.040Z,492.00
2023-03-13T07:48:45.926Z,488.00
2023-03-13T07:49:45.925Z,556.00
2023-03-13T07:50:45.919Z,576.00
2023-03-13T07:51:45.899Z,616.00
2023-03-13T07:52:45.943Z,656.00
2023-03-13T07:53:45.859Z,736.00
2023-03-13T07:54:45.943Z,688.00
2023-03-13T07:55:45.860Z,596.00
2023-03-13T07:56:45.855Z,652.00
2023-03-13T07:57:45.816Z,720.00
2023-03-13T07:58:45.797Z,796.00
2023-03-13T07:59:45.792Z,824.00
2023-03-13T08:00:45.773Z,772.00
2023-03-13T08:01:45.755Z,780.00
2023-03-13T08:02:45.818Z,844.00
2023-03-13T08:03:45.855Z,788.00
2023-03-13T08:04:45.727Z,700.00
2023-03-13T08:05:45.706Z,652.00
2023-03-13T08:06:45.694Z,640.00
2023-03-13T08:07:45.696Z,696.00
2023-03-13T08:08:45.660Z,632.00
2023-03-13T08:09:45.643Z,628.00
2023-03-13T08:10:45.682Z,636.00
2023-03-13T08:11:45.664Z,692.00
2023-03-13T08:12:45.621Z,696.00
2023-03-13T08:13:45.602Z,688.00
2023-03-13T08:14:45.571Z,716.00
2023-03-13T08:15:45.568Z,704.00
2023-03-13T08:16:45.589Z,684.00
2023-03-13T08:17:45.608Z,672.00
2023-03-13T08:18:45.546Z,696.00
2023-03-13T08:19:45.538Z,712.00
2023-03-13T08:20:45.755Z,716.00
2023-03-13T08:21:45.496Z,636.00
2023-03-13T08:22:45.487Z,604.00
2023-03-13T08:23:45.471Z,640.00
2023-03-13T08:24:45.465Z,736.00
2023-03-13T08:25:45.429Z,748.00
2023-03-13T08:26:45.445Z,736.00
2023-03-13T08:27:45.417Z,744.00
2023-03-13T08:28:45.431Z,848.00
2023-03-13T08:29:45.378Z,900.00
2023-03-13T08:30:45.439Z,908.00
2023-03-13T08:31:45.367Z,832.00
2023-03-13T08:32:45.455Z,800.00
2023-03-13T08:33:45.345Z,752.00
2023-03-13T08:34:45.322Z,672.00
2023-03-13T08:35:45.384Z,728.00
2023-03-13T08:36:45.352Z,764.00
2023-03-13T08:37:45.313Z,732.00
2023-03-13T08:38:46.273Z,780.00
2023-03-13T08:39:45.273Z,804.00
2023-03-13T08:40:45.350Z,760.00
2023-03-13T08:41:45.252Z,728.00
2023-03-13T08:42:45.228Z,736.00
2023-03-13T08:43:45.236Z,776.00
2023-03-13T08:44:45.217Z,748.00
2023-03-13T08:45:45.214Z,680.00
2023-03-13T08:46:45.264Z,620.00
2023-03-13T08:47:45.164Z,660.00
2023-03-13T08:48:45.190Z,696.00
2023-03-13T08:49:45.135Z,708.00
2023-03-13T08:50:45.120Z,692.00
2023-03-13T08:51:45.119Z,660.00
2023-03-13T08:52:45.107Z,628.00
2023-03-13T08:53:45.096Z,664.00
2023-03-13T08:54:45.105Z,704.00
2023-03-13T08:55:45.080Z,728.00
2023-03-13T08:56:45.052Z,716.00
2023-03-13T08:57:45.051Z,752.00
2023-03-13T08:58:45.023Z,768.00
2023-03-13T08:59:45.030Z,856.00
2023-03-13T09:00:44.998Z,900.00
2023-03-13T09:01:44.988Z,988.00
2023-03-13T09:02:45.018Z,1084.00
2023-03-13T09:03:45.118Z,1024.00
2023-03-13T09:04:44.951Z,1196.00
2023-03-13T09:05:55.620Z,1320.00
2023-03-13T09:06:45.898Z,1304.00
2023-03-13T09:07:44.902Z,1396.00
2023-03-13T09:08:44.891Z,1544.00
2023-03-13T09:09:44.886Z,1516.00
2023-03-13T09:10:44.886Z,1556.00
2023-03-13T09:11:44.864Z,1628.00
2023-03-13T09:12:44.838Z,1704.00
2023-03-13T09:13:44.869Z,1712.00
2023-03-13T09:14:53.480Z,1820.00
2023-03-13T09:15:44.836Z,1888.00
2023-03-13T09:16:44.788Z,1704.00
2023-03-13T09:17:44.780Z,1460.00
2023-03-13T09:18:44.778Z,1388.00
2023-03-13T09:19:57.862Z,1640.00
2023-03-13T09:20:47.112Z,1872.00
2023-03-13T09:21:44.752Z,2288.00
2023-03-13T09:22:44.703Z,2272.00
2023-03-13T09:23:44.715Z,2368.00
2023-03-13T09:24:44.703Z,2920.00
2023-03-13T09:25:44.678Z,2908.00
2023-03-13T09:27:00.094Z,2564.00
2023-03-13T09:27:45.680Z,2504.00
2023-03-13T09:28:53.317Z,1992.00
2023-03-13T09:29:44.624Z,2028.00
2023-03-13T09:30:44.648Z,2008.00
2023-03-13T09:31:44.602Z,2088.00
2023-03-13T09:32:44.637Z,2084.00
2023-03-13T09:33:44.607Z,2028.00
2023-03-13T09:34:44.580Z,1900.00
2023-03-13T09:35:44.575Z,2060.00
2023-03-13T09:36:44.528Z,2176.00
2023-03-13T09:37:44.562Z,1968.00
2023-03-13T09:38:44.572Z,2244.00
2023-03-13T09:39:44.500Z,2496.00
2023-03-13T09:40:56.519Z,2628.00
2023-03-13T09:41:45.467Z,2724.00
2023-03-13T09:42:44.442Z,2668.00
2023-03-13T09:43:44.463Z,2440.00
2023-03-13T09:44:44.450Z,2300.00
2023-03-13T09:45:44.410Z,2344.00
2023-03-13T09:46:44.494Z,2164.00
2023-03-13T10:03:14.696Z,1940.00
2023-03-13T10:04:14.754Z,1836.00
2023-03-13T10:05:14.683Z,1692.00
2023-03-13T10:06:14.667Z,1364.00
2023-03-13T10:07:14.638Z,1156.00
2023-03-13T10:08:14.626Z,972.00
2023-03-13T10:09:14.666Z,1020.00
2023-03-13T10:10:14.631Z,1028.00
2023-03-13T10:11:14.597Z,1052.00
2023-03-13T10:12:14.579Z,988.00
2023-03-13T10:13:14.567Z,904.00
2023-03-13T10:14:14.547Z,1052.00
2023-03-13T10:15:14.537Z,1024.00
2023-03-13T10:16:15.051Z,1088.00
2023-03-13T10:17:22.004Z,1076.00
2023-03-13T10:18:14.484Z,1172.00
2023-03-13T10:19:14.464Z,1116.00
2023-03-13T10:20:14.474Z,1212.00
2023-03-13T10:21:14.450Z,1048.00
2023-03-13T10:22:14.435Z,1004.00
2023-03-13T10:23:14.431Z,1068.00
2023-03-13T10:24:14.419Z,1116.00
2023-03-13T10:25:14.406Z,1028.00
2023-03-13T10:26:14.386Z,880.00
2023-03-13T10:27:14.376Z,888.00
2023-03-13T10:28:14.387Z,1052.00
2023-03-13T10:29:14.351Z,920.00
2023-03-13T10:30:14.366Z,884.00
2023-03-13T10:31:14.431Z,860.00
2023-03-13T10:32:14.321Z,812.00
2023-03-13T10:33:14.308Z,820.00
2023-03-13T10:34:14.315Z,828.00
2023-03-13T10:35:14.292Z,820.00
2023-03-13T10:36:14.297Z,824.00
2023-03-13T10:37:14.259Z,816.00
2023-03-13T10:38:14.237Z,880.00
2023-03-13T10:39:14.226Z,808.00
2023-03-13T10:40:14.252Z,696.00
2023-03-13T10:41:14.201Z,652.00
2023-03-13T10:42:14.217Z,692.00
2023-03-13T10:43:14.193Z,748.00
2023-03-13T10:44:14.179Z,772.00
2023-03-13T10:45:14.179Z,784.00
2023-03-13T10:46:14.205Z,660.00
2023-03-13T10:47:14.140Z,668.00
2023-03-13T10:48:14.125Z,692.00
2023-03-13T10:49:14.265Z,732.00
2023-03-13T10:50:14.107Z,740.00
2023-03-13T10:51:14.068Z,848.00
2023-03-13T10:52:14.072Z,804.00
2023-03-13T10:53:14.049Z,800.00
2023-03-13T10:54:14.048Z,728.00
2023-03-13T10:55:14.054Z,776.00
2023-03-13T10:56:14.028Z,788.00
2023-03-13T10:57:13.990Z,856.00
2023-03-13T10:58:14.000Z,828.00
2023-03-13T10:59:13.973Z,656.00
2023-03-13T11:00:13.998Z,572.00
2023-03-13T11:01:13.939Z,668.00
2023-03-13T11:02:13.986Z,520.00
2023-03-13T11:03:14.010Z,608.00
2023-03-13T11:04:13.920Z,648.00
2023-03-13T11:05:13.900Z,560.00
2023-03-13T11:06:13.891Z,572.00
2023-03-13T11:07:13.873Z,636.00
2023-03-13T11:08:13.911Z,684.00
2023-03-13T11:09:13.864Z,632.00
2023-03-13T11:10:13.845Z,712.00
2023-03-13T11:11:13.801Z,748.00
2023-03-13T11:12:13.814Z,788.00
2023-03-13T11:13:13.810Z,612.00
2023-03-13T11:14:13.808Z,464.00
2023-03-13T11:15:13.823Z,520.00
2023-03-13T11:16:13.818Z,648.00
2023-03-13T11:17:13.740Z,824.00
2023-03-13T11:18:13.785Z,868.00
2023-03-13T11:19:13.738Z,996.00
2023-03-13T11:20:13.724Z,1224.00
2023-03-13T11:21:18.378Z,1720.00
2023-03-13T11:22:14.834Z,1644.00
2023-03-13T11:23:13.664Z,1068.00
2023-03-13T11:24:13.660Z,804.00
2023-03-13T11:25:13.634Z,828.00
2023-03-13T11:26:13.630Z,828.00
2023-03-13T11:27:13.620Z,796.00
2023-03-13T11:28:13.650Z,988.00
2023-03-13T11:29:13.680Z,1036.00
2023-03-13T11:30:13.598Z,904.00
2023-03-13T11:31:13.611Z,1224.00
2023-03-13T11:32:13.571Z,1312.00
2023-03-13T11:33:13.540Z,2140.00
2023-03-13T11:34:13.558Z,2480.00
2023-03-13T11:35:13.561Z,2480.00
2023-03-13T11:36:13.567Z,3384.00
2023-03-13T11:37:13.533Z,3956.00
2023-03-13T11:38:13.496Z,4276.00
2023-03-13T11:39:13.498Z,2944.00
2023-03-13T11:40:13.502Z,1768.00
2023-03-13T11:41:13.507Z,1424.00
2023-03-13T11:42:13.448Z,1208.00
2023-03-13T11:43:24.513Z,1156.00
2023-03-13T11:44:14.437Z,1196.00
2023-03-13T11:45:13.660Z,1184.00
2023-03-13T11:46:13.483Z,1160.00
2023-03-13T11:47:13.421Z,996.00
2023-03-13T11:48:13.548Z,924.00
2023-03-13T11:49:13.350Z,1016.00
2023-03-13T11:50:13.340Z,1052.00
2023-03-13T11:51:13.358Z,808.00
2023-03-13T11:52:13.299Z,640.00
2023-03-13T11:53:13.345Z,668.00
2023-03-13T11:54:13.291Z,704.00
2023-03-13T11:55:13.271Z,776.00
2023-03-13T11:56:13.257Z,716.00
2023-03-13T11:57:13.646Z,580.00
2023-03-13T11:58:13.343Z,516.00
2023-03-13T11:59:13.220Z,464.00
2023-03-13T12:00:13.199Z,456.00
2023-03-13T12:01:13.204Z,524.00
2023-03-13T12:02:13.229Z,536.00
2023-03-13T12:03:13.273Z,536.00
2023-03-13T12:04:13.149Z,608.00
2023-03-13T12:05:13.135Z,528.00
2023-03-13T12:06:27.116Z,520.00
2023-03-13T12:07:14.119Z,580.00
2023-03-13T12:08:13.164Z,588.00
2023-03-13T12:09:13.060Z,648.00
2023-03-13T12:10:13.067Z,592.00
2023-03-13T12:11:13.125Z,584.00
2023-03-13T12:12:13.432Z,672.00
2023-03-13T12:13:13.049Z,664.00
2023-03-13T12:14:13.032Z,672.00
2023-03-13T12:15:13.022Z,656.00
2023-03-13T12:16:13.156Z,728.00
2023-03-13T12:17:13.113Z,832.00
2023-03-13T12:18:12.988Z,836.00
2023-03-13T12:19:12.944Z,972.00
2023-03-13T12:20:12.936Z,1068.00
2023-03-13T12:21:12.974Z,996.00
2023-03-13T12:22:12.974Z,1040.00
2023-03-13T12:23:12.991Z,1140.00
2023-03-13T12:24:12.882Z,1168.00
2023-03-13T12:25:12.952Z,1120.00
2023-03-13T12:26:12.894Z,1052.00
2023-03-13T12:27:12.897Z,1148.00
2023-03-13T12:28:12.873Z,1184.00
2023-03-13T12:29:12.831Z,1364.00
2023-03-13T12:30:12.797Z,1676.00
2023-03-13T12:31:13.169Z,2300.00
2023-03-13T12:32:12.889Z,1920.00
2023-03-13T12:33:12.936Z,2236.00
2023-03-13T12:34:12.760Z,2352.00
2023-03-13T12:35:12.783Z,2740.00
2023-03-13T12:36:12.797Z,4224.00
2023-03-13T12:37:12.727Z,8856.00
2023-03-13T12:38:12.731Z,15136.00
2023-03-13T12:39:12.801Z,28256.00
2023-03-13T12:40:12.731Z,40576.00
2023-03-13T12:41:12.932Z,44576.00
2023-03-13T12:42:12.877Z,12024.00
2023-03-13T12:43:12.664Z,47392.00
2023-03-13T12:44:12.634Z,22240.00
2023-03-13T12:45:12.670Z,43040.00
2023-03-13T12:46:12.689Z,44064.00
2023-03-13T12:47:12.594Z,37728.00
2023-03-13T12:48:12.615Z,38976.00
2023-03-13T12:49:12.567Z,49536.00
2023-03-13T12:50:12.816Z,49984.00
2023-03-13T12:51:12.536Z,51200.00
2023-03-13T12:52:13.524Z,50432.00
2023-03-13T12:53:12.548Z,52448.00
2023-03-13T12:54:12.634Z,52352.00
2023-03-13T12:55:12.510Z,48320.00
2023-03-13T12:56:12.828Z,45760.00
2023-03-13T12:57:12.464Z,46176.00
2023-03-13T12:58:12.503Z,48736.00
2023-03-13T12:59:12.449Z,48640.00
2023-03-13T13:00:12.478Z,49568.00
2023-03-13T13:01:12.518Z,5948.00
2023-03-13T13:02:12.410Z,9976.00
2023-03-13T13:03:12.609Z,35264.00
2023-03-13T13:04:12.440Z,23840.00
2023-03-13T13:05:12.454Z,48384.00
2023-03-13T13:06:12.529Z,23808.00
2023-03-13T13:07:12.329Z,46336.00
2023-03-13T13:08:12.323Z,20640.00
2023-03-13T13:09:12.328Z,42816.00
2023-03-13T13:10:12.321Z,4096.00
2023-03-13T13:11:12.292Z,1844.00
2023-03-13T13:12:12.279Z,1096.00